createdAt,value
2022-08-28T00:03:41.354Z,5.10
2022-08-28T00:08:44.867Z,5.50
2022-08-28T00:13:48.955Z,5.80
2022-08-28T00:18:52.312Z,6.10
2022-08-28T00:23:56.234Z,5.40
2022-08-28T00:34:03.571Z,5.80
2022-08-28T00:39:08.331Z,5.90
2022-08-28T00:44:16.132Z,5.50
2022-08-28T00:49:25.380Z,5.60
2022-08-28T00:54:33.296Z,5.30
2022-08-28T00:59:37.838Z,5.80
2022-08-28T01:04:42.174Z,5.40
2022-08-28T01:09:49.178Z,6.10
2022-08-28T01:14:56.374Z,5.00
2022-08-28T01:20:06.137Z,5.90
2022-08-28T01:25:14.669Z,5.00
2022-08-28T01:30:20.289Z,5.30
2022-08-28T01:35:32.042Z,5.60
2022-08-28T01:40:46.004Z,5.30
2022-08-28T01:45:54.544Z,5.30
2022-08-28T01:50:58.155Z,5.60
2022-08-28T01:56:04.914Z,5.70
2022-08-28T02:01:17.895Z,5.20
2022-08-28T02:06:21.303Z,6.70
2022-08-28T02:11:26.319Z,5.60
2022-08-28T02:16:29.864Z,4.50
2022-08-28T02:21:33.280Z,5.00
2022-08-28T02:26:36.793Z,4.90
2022-08-28T02:31:40.513Z,5.00
2022-08-28T02:36:44.237Z,4.50
2022-08-28T02:41:47.646Z,4.90
2022-08-28T02:46:52.186Z,4.40
2022-08-28T02:51:58.469Z,4.60
2022-08-28T02:57:01.986Z,4.10
2022-08-28T03:02:07.798Z,5.20
2022-08-28T03:07:14.032Z,4.60
2022-08-28T03:12:17.549Z,4.60
2022-08-28T03:17:22.397Z,4.60
2022-08-28T03:22:44.552Z,4.70
2022-08-28T03:27:47.859Z,4.50
2022-08-28T03:32:51.271Z,4.00
2022-08-28T03:37:54.582Z,4.80
2022-08-28T03:42:58.612Z,4.60
2022-08-28T03:48:04.163Z,4.70
2022-08-28T03:53:07.900Z,4.60
2022-08-28T03:58:11.230Z,3.30
2022-08-28T04:03:22.664Z,4.80
2022-08-28T04:08:26.428Z,5.30
2022-08-28T04:13:30.148Z,5.10
2022-08-28T04:18:33.769Z,4.80
2022-08-28T04:23:40.866Z,4.30
2022-08-28T04:28:44.894Z,4.20
2022-08-28T04:33:48.307Z,5.40
2022-08-28T04:38:51.829Z,5.40
2022-08-28T04:43:57.553Z,5.50
2022-08-28T04:49:01.005Z,5.10
2022-08-28T04:54:04.929Z,4.90
2022-08-28T04:59:08.806Z,4.50
2022-08-28T05:04:12.782Z,5.20
2022-08-28T05:09:19.368Z,5.60
2022-08-28T05:14:22.883Z,5.50
2022-08-28T05:19:28.146Z,4.50
2022-08-28T05:24:31.451Z,4.10
2022-08-28T05:29:34.762Z,4.50
2022-08-28T05:34:38.175Z,4.50
2022-08-28T05:39:41.690Z,4.10
2022-08-28T05:44:45.000Z,4.10
2022-08-28T05:49:48.313Z,4.20
2022-08-28T05:54:56.127Z,3.80
2022-08-28T05:59:59.848Z,4.20
2022-08-28T06:10:07.693Z,4.30
2022-08-28T06:15:14.492Z,4.50
2022-08-28T06:20:18.009Z,5.00
2022-08-28T06:30:24.630Z,4.40
2022-08-28T06:35:28.044Z,4.50
2022-08-28T06:40:31.623Z,3.60
2022-08-28T06:45:41.448Z,4.20
2022-08-28T06:50:49.957Z,3.70
2022-08-28T06:56:02.767Z,3.70
2022-08-28T07:01:17.456Z,3.50
2022-08-28T07:06:22.678Z,4.30
2022-08-28T07:11:29.427Z,4.40
2022-08-28T07:16:38.513Z,3.50
2022-08-28T07:21:57.455Z,4.20
2022-08-28T07:27:18.328Z,3.80
2022-08-28T07:32:22.241Z,3.80
2022-08-28T07:37:25.701Z,3.30
2022-08-28T07:42:47.649Z,4.20
2022-08-28T07:47:51.701Z,4.00
2022-08-28T07:52:56.252Z,3.80
2022-08-28T07:58:00.757Z,4.50
2022-08-28T08:03:04.031Z,3.20
2022-08-28T08:08:08.094Z,4.00
2022-08-28T08:13:11.404Z,3.70
2022-08-28T08:18:18.809Z,4.50
2022-08-28T08:23:24.786Z,3.60
2022-08-28T08:28:28.916Z,3.80
2022-08-28T08:33:32.839Z,4.40
2022-08-28T08:38:41.818Z,3.80
2022-08-28T08:43:56.470Z,3.90
2022-08-28T08:49:18.919Z,3.90
2022-08-28T08:54:25.980Z,4.10
2022-08-28T08:59:32.402Z,4.00
2022-08-28T09:04:41.654Z,3.60
2022-08-28T09:09:53.773Z,4.60
2022-08-28T09:15:10.188Z,3.30
2022-08-28T09:20:32.350Z,3.10
2022-08-28T09:25:56.543Z,3.80
2022-08-28T09:31:19.555Z,3.30
2022-08-28T09:36:24.335Z,4.10
2022-08-28T09:41:46.312Z,3.70
2022-08-28T09:46:52.459Z,3.20
2022-08-28T09:51:59.791Z,2.80
2022-08-28T09:57:04.290Z,2.90
2022-08-28T10:02:14.093Z,3.30
2022-08-28T10:07:35.733Z,2.40
2022-08-28T10:12:55.225Z,2.90
2022-08-28T10:18:18.299Z,3.00
2022-08-28T10:23:57.250Z,3.00
2022-08-28T10:29:09.669Z,3.10
2022-08-28T10:34:35.201Z,3.50
2022-08-28T10:39:44.246Z,2.90
2022-08-28T10:45:04.747Z,3.40
2022-08-28T10:50:41.249Z,3.00
2022-08-28T10:56:15.075Z,3.20
2022-08-28T11:01:33.390Z,3.10
2022-08-28T11:06:43.305Z,2.70
2022-08-28T11:11:49.431Z,2.90
2022-08-28T11:16:57.414Z,3.10
2022-08-28T11:22:13.513Z,2.80
2022-08-28T11:27:37.575Z,3.20
2022-08-28T11:32:53.006Z,3.10
2022-08-28T11:37:58.264Z,3.70
2022-08-28T11:43:17.012Z,3.80
2022-08-28T11:48:23.725Z,3.60
2022-08-28T11:53:38.095Z,3.70
2022-08-28T11:59:01.272Z,3.80
2022-08-28T12:04:15.745Z,3.60
2022-08-28T12:09:40.767Z,3.50
2022-08-28T12:14:46.635Z,3.80
2022-08-28T12:19:56.216Z,3.50
2022-08-28T12:25:07.083Z,3.30
2022-08-28T12:30:11.110Z,3.80
2022-08-28T12:35:20.926Z,4.40
2022-08-28T12:40:38.164Z,3.80
2022-08-28T12:45:50.027Z,3.60
2022-08-28T12:51:04.703Z,3.40
2022-08-28T12:56:13.343Z,3.80
2022-08-28T13:01:25.474Z,3.60
2022-08-28T13:06:33.172Z,3.20
2022-08-28T13:11:45.590Z,3.80
2022-08-28T13:16:49.152Z,3.70
2022-08-28T13:22:32.967Z,3.70
2022-08-28T13:27:36.689Z,3.60
2022-08-28T13:32:59.864Z,3.40
2022-08-28T13:38:09.900Z,4.40
2022-08-28T13:43:15.853Z,4.00
2022-08-28T13:48:23.623Z,4.10
2022-08-28T13:53:27.035Z,3.90
2022-08-28T13:58:30.354Z,3.40
2022-08-28T14:03:38.443Z,3.90
2022-08-28T14:08:43.931Z,4.30
2022-08-28T14:13:55.533Z,3.80
2022-08-28T14:19:04.995Z,4.30
2022-08-28T14:24:08.610Z,4.20
2022-08-28T14:29:13.727Z,4.10
2022-08-28T14:34:20.283Z,4.40
2022-08-28T14:39:26.027Z,4.20
2022-08-28T14:44:29.327Z,3.80
2022-08-28T14:49:32.639Z,3.40
2022-08-28T14:54:35.849Z,3.40
2022-08-28T14:59:39.776Z,5.20
2022-08-28T15:04:43.293Z,3.60
2022-08-28T15:09:46.703Z,3.60
2022-08-28T15:14:55.290Z,4.40
2022-08-28T15:20:01.412Z,5.20
2022-08-28T15:25:06.272Z,5.00
2022-08-28T15:30:11.731Z,4.90
2022-08-28T15:40:39.230Z,4.10
2022-08-28T15:45:43.199Z,3.60
2022-08-28T15:50:46.673Z,3.80
2022-08-28T15:55:51.319Z,3.20
2022-08-28T16:00:54.698Z,4.60
2022-08-28T16:05:58.041Z,4.80
2022-08-28T16:11:01.363Z,4.10
2022-08-28T16:16:05.038Z,5.40
2022-08-28T16:21:09.672Z,5.70
2022-08-28T16:26:16.099Z,5.70
2022-08-28T16:31:20.741Z,5.30
2022-08-28T16:36:25.585Z,6.00
2022-08-28T16:41:29.208Z,4.90
2022-08-28T16:46:35.305Z,5.50
2022-08-28T16:51:39.820Z,6.90
2022-08-28T16:56:43.131Z,6.20
2022-08-28T17:06:56.510Z,7.30
2022-08-28T17:12:00.743Z,7.20
2022-08-28T17:22:27.241Z,9.40
2022-08-28T17:27:32.463Z,7.40
2022-08-28T17:32:36.114Z,8.10
2022-08-28T17:37:41.110Z,9.70
2022-08-28T17:42:45.995Z,10.20
2022-08-28T17:47:49.519Z,9.60
2022-08-28T17:52:53.140Z,9.80
2022-08-28T18:03:00.373Z,8.40
2022-08-28T18:08:05.530Z,10.10
2022-08-28T18:13:08.940Z,8.10
2022-08-28T18:18:15.368Z,10.00
2022-08-28T18:23:19.043Z,8.30
2022-08-28T18:28:24.247Z,9.30
2022-08-28T18:33:27.920Z,8.10
2022-08-28T18:43:38.636Z,7.70
2022-08-28T18:48:43.381Z,9.70
2022-08-28T18:53:47.102Z,8.10
2022-08-28T18:58:52.256Z,6.70
2022-08-28T19:08:59.184Z,7.80
2022-08-28T19:14:03.667Z,7.40
2022-08-28T19:19:09.013Z,7.10
2022-08-28T19:24:16.693Z,7.50
2022-08-28T19:29:20.521Z,7.70
2022-08-28T19:34:24.088Z,7.20
2022-08-28T19:44:31.371Z,8.10
2022-08-28T19:54:40.858Z,7.90
2022-08-28T19:59:44.994Z,8.40
2022-08-28T20:04:48.608Z,6.30
2022-08-28T20:09:52.436Z,6.20
2022-08-28T20:14:59.029Z,6.90
2022-08-28T20:20:10.691Z,6.80
2022-08-28T20:25:15.881Z,6.90
2022-08-28T20:30:19.191Z,5.80
2022-08-28T20:35:24.585Z,7.10
2022-08-28T20:40:31.187Z,6.60
2022-08-28T20:45:36.600Z,6.80
2022-08-28T20:50:39.910Z,6.90
2022-08-28T20:55:43.323Z,6.40
2022-08-28T21:00:47.247Z,5.40
2022-08-28T21:05:51.377Z,5.40
2022-08-28T21:10:54.586Z,5.80
2022-08-28T21:15:57.916Z,4.20
2022-08-28T21:26:11.742Z,5.00
2022-08-28T21:31:15.726Z,4.60
2022-08-28T21:36:19.438Z,5.10
2022-08-28T21:46:26.118Z,6.00
2022-08-28T21:56:33.292Z,5.10
2022-08-28T22:01:36.665Z,4.40
2022-08-28T22:06:40.939Z,4.00
2022-08-28T22:11:44.456Z,5.10
2022-08-28T22:16:47.888Z,3.80
2022-08-28T22:22:09.918Z,4.10
2022-08-28T22:27:14.252Z,4.50
2022-08-28T22:32:17.730Z,5.20
2022-08-28T22:37:21.591Z,5.00
2022-08-28T22:47:28.882Z,5.20
2022-08-28T22:52:32.755Z,6.00
2022-08-28T22:57:36.167Z,6.70
2022-08-28T23:02:40.743Z,6.00
2022-08-28T23:07:44.426Z,5.90
2022-08-28T23:12:47.838Z,6.90
2022-08-28T23:17:51.149Z,5.50
2022-08-28T23:22:58.198Z,6.70
2022-08-28T23:28:06.273Z,5.30
2022-08-28T23:33:10.095Z,7.00
2022-08-28T23:38:13.660Z,6.40
2022-08-28T23:43:18.149Z,6.00
2022-08-28T23:48:22.076Z,6.50
2022-08-28T23:58:31.803Z,6.50
